createdAt,value
2017-12-09T00:01:23.127Z,1.80
2017-12-09T00:04:30.984Z,4.50
2017-12-09T00:07:40.083Z,4.03
2017-12-09T00:10:47.707Z,2.10
2017-12-09T00:13:56.585Z,2.60
2017-12-09T00:17:04.504Z,7.30
2017-12-09T00:20:14.793Z,4.40
2017-12-09T00:23:22.346Z,3.93
2017-12-09T00:26:31.304Z,7.87
2017-12-09T00:29:40.368Z,9.63
2017-12-09T00:32:48.414Z,3.67
2017-12-09T00:35:56.411Z,9.40
2017-12-09T00:39:04.048Z,10.67
2017-12-09T00:42:11.023Z,1.90
2017-12-09T00:45:21.004Z,15.97
2017-12-09T00:48:27.989Z,3.83
2017-12-09T00:51:35.860Z,2.73
2017-12-09T00:54:42.878Z,11.93
2017-12-09T00:57:51.294Z,15.43
2017-12-09T01:00:58.791Z,12.83
2017-12-09T01:04:06.882Z,4.60
2017-12-09T01:07:15.766Z,7.90
2017-12-09T01:10:24.685Z,5.60
2017-12-09T01:13:31.584Z,4.17
2017-12-09T01:16:50.407Z,1.83
2017-12-09T01:19:57.582Z,5.23
2017-12-09T01:23:06.573Z,1.20
2017-12-09T01:26:14.484Z,1.80
2017-12-09T01:29:23.428Z,2.80
2017-12-09T01:32:31.324Z,4.40
2017-12-09T01:35:40.063Z,6.73
2017-12-09T01:38:48.107Z,3.13
2017-12-09T01:41:56.031Z,6.10
2017-12-09T01:45:04.133Z,5.60
2017-12-09T01:48:12.048Z,4.30
2017-12-09T01:51:19.900Z,2.23
2017-12-09T01:54:29.055Z,4.90
2017-12-09T01:57:36.311Z,11.30
2017-12-09T02:00:43.853Z,5.93
2017-12-09T02:03:52.931Z,9.33
2017-12-09T02:07:00.896Z,5.67
2017-12-09T02:10:09.939Z,6.00
2017-12-09T02:13:18.848Z,5.50
2017-12-09T02:16:28.461Z,12.43
2017-12-09T02:19:38.126Z,8.10
2017-12-09T02:22:47.943Z,4.00
2017-12-09T02:25:56.812Z,11.60
2017-12-09T02:29:04.671Z,8.53
2017-12-09T02:32:12.534Z,8.03
2017-12-09T02:35:22.443Z,12.13
2017-12-09T02:38:31.234Z,14.43
2017-12-09T02:41:40.674Z,2.80
2017-12-09T02:44:50.107Z,8.90
2017-12-09T02:47:57.937Z,9.00
2017-12-09T02:51:05.573Z,9.57
2017-12-09T02:54:13.530Z,4.50
2017-12-09T02:57:21.302Z,4.60
2017-12-09T03:00:29.224Z,7.07
2017-12-09T03:03:37.985Z,5.33
2017-12-09T03:06:45.989Z,6.47
2017-12-09T03:09:56.043Z,4.90
2017-12-09T03:13:06.508Z,4.23
2017-12-09T03:16:14.087Z,8.30
2017-12-09T03:19:22.063Z,3.40
2017-12-09T03:22:29.033Z,3.17
2017-12-09T03:25:36.093Z,4.93
2017-12-09T03:28:44.050Z,4.03
2017-12-09T03:31:52.992Z,3.83
2017-12-09T03:35:02.813Z,11.70
2017-12-09T03:38:10.822Z,4.00
2017-12-09T03:41:20.682Z,5.80
2017-12-09T03:44:30.841Z,5.33
2017-12-09T03:47:39.753Z,7.00
2017-12-09T03:50:48.937Z,7.07
2017-12-09T03:53:57.669Z,8.10
2017-12-09T03:57:05.372Z,4.53
2017-12-09T04:00:15.326Z,8.60
2017-12-09T04:03:26.495Z,8.17
2017-12-09T04:06:34.295Z,5.17
2017-12-09T04:09:44.217Z,6.60
2017-12-09T04:12:54.171Z,4.43
2017-12-09T04:16:01.229Z,2.70
2017-12-09T04:19:11.438Z,11.73
2017-12-09T04:22:20.679Z,4.47
2017-12-09T04:25:29.353Z,6.17
2017-12-09T04:28:37.686Z,8.17
2017-12-09T04:31:47.186Z,7.20
2017-12-09T04:34:56.031Z,8.47
2017-12-09T04:38:04.773Z,5.47
2017-12-09T04:41:12.815Z,4.03
2017-12-09T04:44:21.846Z,3.97
2017-12-09T04:47:30.761Z,5.13
2017-12-09T04:50:37.859Z,6.60
2017-12-09T04:53:45.565Z,7.53
2017-12-09T04:56:53.386Z,4.07
2017-12-09T05:03:09.443Z,4.13
2017-12-09T05:06:17.087Z,6.80
2017-12-09T05:09:27.271Z,7.67
2017-12-09T05:12:35.006Z,8.53
2017-12-09T05:15:44.829Z,6.80
2017-12-09T05:18:53.650Z,8.70
2017-12-09T05:22:02.918Z,7.97
2017-12-09T05:25:10.886Z,8.13
2017-12-09T05:28:19.903Z,10.80
2017-12-09T05:31:27.885Z,13.37
2017-12-09T05:34:36.301Z,13.07
2017-12-09T05:37:46.151Z,16.10
2017-12-09T05:40:54.364Z,9.47
2017-12-09T05:44:02.474Z,20.27
2017-12-09T05:47:11.421Z,7.50
2017-12-09T05:50:19.245Z,7.10
2017-12-09T05:53:29.118Z,5.40
2017-12-09T05:56:38.084Z,13.03
2017-12-09T05:59:46.882Z,14.67
2017-12-09T06:02:54.758Z,9.87
2017-12-09T06:06:03.734Z,11.30
2017-12-09T06:09:12.582Z,6.80
2017-12-09T06:12:21.597Z,8.70
2017-12-09T06:15:29.446Z,8.77
2017-12-09T06:18:39.220Z,10.60
2017-12-09T06:21:47.127Z,5.40
2017-12-09T06:24:56.084Z,9.87
2017-12-09T06:28:03.178Z,10.33
2017-12-09T06:31:18.342Z,6.70
2017-12-09T06:34:33.190Z,6.13
2017-12-09T06:37:48.178Z,10.20
2017-12-09T06:41:01.337Z,7.43
2017-12-09T06:44:07.804Z,5.60
2017-12-09T06:47:19.598Z,8.57
2017-12-09T06:50:34.175Z,5.50
2017-12-09T06:53:41.935Z,7.53
2017-12-09T06:56:57.165Z,7.67
2017-12-09T07:00:09.014Z,5.17
2017-12-09T07:03:18.200Z,7.13
2017-12-09T07:06:26.357Z,7.17
2017-12-09T07:09:35.353Z,6.60
2017-12-09T07:12:44.486Z,9.83
2017-12-09T07:15:54.571Z,10.20
2017-12-09T07:19:03.393Z,6.77
2017-12-09T07:22:12.222Z,4.80
2017-12-09T07:25:20.606Z,4.10
2017-12-09T07:28:27.484Z,7.10
2017-12-09T07:31:38.402Z,5.10
2017-12-09T07:34:46.241Z,6.07
2017-12-09T07:37:55.002Z,3.30
2017-12-09T07:41:03.745Z,5.47
2017-12-09T07:44:12.788Z,9.30
2017-12-09T07:47:21.807Z,4.23
2017-12-09T07:50:29.861Z,4.80
2017-12-09T07:53:39.725Z,3.67
2017-12-09T07:56:48.463Z,4.30
2017-12-09T07:59:57.516Z,6.43
2017-12-09T08:03:06.327Z,6.07
2017-12-09T08:06:19.952Z,7.47
2017-12-09T08:09:27.581Z,5.47
2017-12-09T08:12:36.338Z,10.03
2017-12-09T08:15:45.331Z,6.03
2017-12-09T08:18:55.359Z,12.40
2017-12-09T08:22:04.394Z,12.20
2017-12-09T08:25:13.314Z,11.43
2017-12-09T08:28:23.503Z,9.23
2017-12-09T08:31:33.284Z,8.97
2017-12-09T08:34:42.182Z,9.43
2017-12-09T08:37:51.149Z,8.17
2017-12-09T08:41:01.309Z,7.87
2017-12-09T08:44:10.345Z,10.73
2017-12-09T08:47:18.393Z,18.40
2017-12-09T08:50:28.388Z,10.33
2017-12-09T08:53:36.334Z,15.23
2017-12-09T08:56:44.297Z,11.90
2017-12-09T08:59:53.608Z,8.23
2017-12-09T09:03:02.213Z,9.60
2017-12-09T09:06:10.761Z,12.40
2017-12-09T09:09:19.446Z,10.00
2017-12-09T09:12:27.097Z,7.87
2017-12-09T09:15:34.649Z,8.33
2017-12-09T09:18:44.079Z,9.60
2017-12-09T09:21:53.605Z,9.47
2017-12-09T09:25:02.546Z,7.17
2017-12-09T09:28:11.693Z,7.83
2017-12-09T09:31:19.887Z,9.40
2017-12-09T09:34:28.048Z,12.03
2017-12-09T09:37:35.492Z,11.70
2017-12-09T09:40:42.530Z,7.93
2017-12-09T09:43:49.162Z,6.90
2017-12-09T09:46:58.026Z,10.33
2017-12-09T09:50:07.677Z,8.23
2017-12-09T09:53:15.660Z,9.50
2017-12-09T09:56:24.534Z,10.83
2017-12-09T09:59:34.309Z,14.07
2017-12-09T10:02:42.312Z,12.87
2017-12-09T10:05:51.675Z,9.00
2017-12-09T10:09:01.873Z,6.53
2017-12-09T10:12:10.140Z,6.83
2017-12-09T10:15:20.535Z,7.00
2017-12-09T10:18:28.975Z,11.53
2017-12-09T10:21:38.085Z,11.97
2017-12-09T10:24:47.847Z,14.10
2017-12-09T10:27:55.645Z,7.60
2017-12-09T10:31:04.983Z,8.87
2017-12-09T10:34:13.915Z,7.20
2017-12-09T10:37:22.971Z,8.30
2017-12-09T10:40:29.983Z,8.60
2017-12-09T10:43:38.790Z,8.33
2017-12-09T10:46:46.803Z,7.30
2017-12-09T10:49:55.621Z,6.27
2017-12-09T10:53:03.510Z,10.37
2017-12-09T10:56:11.283Z,5.30
2017-12-09T11:02:43.248Z,8.10
2017-12-09T11:05:50.714Z,6.90
2017-12-09T11:08:59.474Z,7.57
2017-12-09T11:12:10.433Z,4.67
2017-12-09T11:15:19.379Z,3.60
2017-12-09T11:18:31.184Z,4.07
2017-12-09T11:21:38.255Z,5.67
2017-12-09T11:24:48.205Z,4.33
2017-12-09T11:27:57.074Z,5.40
2017-12-09T11:31:03.975Z,5.60
2017-12-09T11:34:13.961Z,8.60
2017-12-09T11:37:21.797Z,5.83
2017-12-09T11:40:29.809Z,9.20
2017-12-09T11:43:37.569Z,8.17
2017-12-09T11:46:46.671Z,4.30
2017-12-09T11:49:54.007Z,8.63
2017-12-09T11:53:04.916Z,3.80
2017-12-09T11:56:11.908Z,4.83
2017-12-09T12:00:22.534Z,4.23
2017-12-09T12:03:30.513Z,4.07
2017-12-09T12:06:39.257Z,7.30
2017-12-09T12:09:47.016Z,4.33
2017-12-09T12:12:57.080Z,6.27
2017-12-09T12:16:03.846Z,16.10
2017-12-09T12:19:13.601Z,6.40
2017-12-09T12:22:22.394Z,9.40
2017-12-09T12:25:30.013Z,9.73
2017-12-09T12:28:37.230Z,9.40
2017-12-09T12:31:43.251Z,6.10
2017-12-09T12:34:52.933Z,12.10
2017-12-09T12:38:02.302Z,7.20
2017-12-09T12:41:10.565Z,7.13
2017-12-09T12:44:19.472Z,7.13
2017-12-09T12:47:28.135Z,11.37
2017-12-09T12:50:37.869Z,12.07
2017-12-09T12:53:45.819Z,6.30
2017-12-09T12:56:55.744Z,12.23
2017-12-09T13:00:03.886Z,5.67
2017-12-09T13:03:10.771Z,9.67
2017-12-09T13:06:18.530Z,6.20
2017-12-09T13:09:28.272Z,13.50
2017-12-09T13:12:36.245Z,5.17
2017-12-09T13:15:45.052Z,4.53
2017-12-09T13:18:55.139Z,7.07
2017-12-09T13:22:05.045Z,6.70
2017-12-09T13:25:13.855Z,9.93
2017-12-09T13:28:22.654Z,14.27
2017-12-09T13:31:30.391Z,25.33
2017-12-09T13:34:38.197Z,14.30
2017-12-09T13:37:45.695Z,12.00
2017-12-09T13:40:55.953Z,11.73
2017-12-09T13:44:03.998Z,9.53
2017-12-09T13:47:12.963Z,13.43
2017-12-09T13:50:22.049Z,24.70
2017-12-09T13:53:31.887Z,11.33
2017-12-09T13:56:40.141Z,12.83
2017-12-09T13:59:49.392Z,14.40
2017-12-09T14:02:57.531Z,10.60
2017-12-09T14:06:05.506Z,10.20
2017-12-09T14:09:14.450Z,10.50
2017-12-09T14:12:22.497Z,11.63
2017-12-09T14:15:30.566Z,7.30
2017-12-09T14:18:38.446Z,8.80
2017-12-09T14:21:47.202Z,9.57
2017-12-09T14:24:55.582Z,10.60
2017-12-09T14:28:12.793Z,5.07
2017-12-09T14:31:21.763Z,8.17
2017-12-09T14:34:30.016Z,9.10
2017-12-09T14:37:37.670Z,8.70
2017-12-09T14:40:45.766Z,7.20
2017-12-09T14:43:54.490Z,6.67
2017-12-09T14:47:02.373Z,12.10
2017-12-09T14:50:10.650Z,8.80
2017-12-09T14:53:18.449Z,7.73
2017-12-09T14:56:27.257Z,5.00
2017-12-09T14:59:34.976Z,5.53
2017-12-09T15:02:45.095Z,4.50
2017-12-09T15:05:51.801Z,5.27
2017-12-09T15:09:00.278Z,3.57
2017-12-09T15:12:07.255Z,4.10
2017-12-09T15:15:15.228Z,3.63
2017-12-09T15:18:22.090Z,2.93
2017-12-09T15:21:30.139Z,3.13
2017-12-09T15:24:38.070Z,2.70
2017-12-09T15:27:46.978Z,2.90
2017-12-09T15:30:55.798Z,3.57
2017-12-09T15:34:05.735Z,3.00
2017-12-09T15:37:14.597Z,3.43
2017-12-09T15:40:23.532Z,2.73
2017-12-09T15:43:33.431Z,3.57
2017-12-09T15:46:42.438Z,4.37
2017-12-09T15:49:50.403Z,2.93
2017-12-09T15:52:59.302Z,3.60
2017-12-09T15:56:08.245Z,4.37
2017-12-09T15:59:18.383Z,5.00
2017-12-09T16:02:27.505Z,3.97
2017-12-09T16:05:36.475Z,3.10
2017-12-09T16:08:45.154Z,5.07
2017-12-09T16:11:53.042Z,5.33
2017-12-09T16:15:00.800Z,4.47
2017-12-09T16:18:09.414Z,5.27
2017-12-09T16:21:19.145Z,5.60
2017-12-09T16:24:29.030Z,6.00
2017-12-09T16:27:35.845Z,4.77
2017-12-09T16:30:43.974Z,4.77
2017-12-09T16:33:52.986Z,3.73
2017-12-09T16:37:02.078Z,6.07
2017-12-09T16:40:09.814Z,4.23
2017-12-09T16:43:19.075Z,6.20
2017-12-09T16:46:26.996Z,4.50
2017-12-09T16:49:36.265Z,7.33
2017-12-09T16:52:44.146Z,6.93
2017-12-09T16:55:54.306Z,6.00
2017-12-09T16:59:02.482Z,6.27
2017-12-09T17:02:09.222Z,6.90
2017-12-09T17:05:17.331Z,5.83
2017-12-09T17:08:26.299Z,6.23
2017-12-09T17:11:35.414Z,6.13
2017-12-09T17:14:43.423Z,5.97
2017-12-09T17:17:51.434Z,7.40
2017-12-09T17:20:59.847Z,4.03
2017-12-09T17:24:07.491Z,6.53
2017-12-09T17:27:15.394Z,6.20
2017-12-09T17:30:23.245Z,7.70
2017-12-09T17:33:31.101Z,7.73
2017-12-09T17:36:39.130Z,6.63
2017-12-09T17:39:48.355Z,8.30
2017-12-09T17:42:57.168Z,12.20
2017-12-09T17:46:04.832Z,6.50
2017-12-09T17:49:14.156Z,5.73
2017-12-09T17:52:24.816Z,4.50
2017-12-09T17:55:31.785Z,4.40
2017-12-09T17:58:40.754Z,5.70
2017-12-09T18:01:48.693Z,4.30
2017-12-09T18:04:57.468Z,6.90
2017-12-09T18:08:06.523Z,6.60
2017-12-09T18:11:15.758Z,6.17
2017-12-09T18:14:22.644Z,10.27
2017-12-09T18:17:32.604Z,10.63
2017-12-09T18:20:40.645Z,7.33
2017-12-09T18:23:49.491Z,8.80
2017-12-09T18:26:56.524Z,5.60
2017-12-09T18:30:05.211Z,6.10
2017-12-09T18:33:14.051Z,5.60
2017-12-09T18:36:22.838Z,4.57
2017-12-09T18:39:29.918Z,3.93
2017-12-09T18:42:38.663Z,7.17
2017-12-09T18:45:46.499Z,5.20
2017-12-09T18:48:55.353Z,6.43
2017-12-09T18:52:02.413Z,4.97
2017-12-09T18:55:10.429Z,4.53
2017-12-09T18:58:17.235Z,5.20
2017-12-09T19:01:25.366Z,6.93
2017-12-09T19:04:32.156Z,5.50
2017-12-09T19:07:41.122Z,2.93
2017-12-09T19:10:48.917Z,6.60
2017-12-09T19:13:58.663Z,8.97
2017-12-09T19:17:06.482Z,8.70
2017-12-09T19:20:14.371Z,7.30
2017-12-09T19:23:23.324Z,11.27
2017-12-09T19:26:31.979Z,10.27
2017-12-09T19:29:40.115Z,17.10
2017-12-09T19:32:48.051Z,12.50
2017-12-09T19:35:54.864Z,14.47
2017-12-09T19:39:04.794Z,13.47
2017-12-09T19:42:12.464Z,14.63
2017-12-09T19:45:22.406Z,15.93
2017-12-09T19:48:30.219Z,15.77
2017-12-09T19:51:39.065Z,17.00
2017-12-09T19:54:46.854Z,16.30
2017-12-09T19:57:54.786Z,17.00
2017-12-09T20:01:02.897Z,17.77
2017-12-09T20:04:11.514Z,22.80
2017-12-09T20:07:19.850Z,16.33
2017-12-09T20:10:29.735Z,21.33
2017-12-09T20:13:38.880Z,25.80
2017-12-09T20:16:47.653Z,27.87
2017-12-09T20:19:57.655Z,19.80
2017-12-09T20:23:07.788Z,19.33
2017-12-09T20:26:16.595Z,22.40
2017-12-09T20:29:27.319Z,26.37
2017-12-09T20:32:36.070Z,19.10
2017-12-09T20:35:43.129Z,26.10
2017-12-09T20:38:50.897Z,37.63
2017-12-09T20:41:59.776Z,28.63
2017-12-09T20:45:07.618Z,21.83
2017-12-09T20:48:16.521Z,27.60
2017-12-09T20:51:24.610Z,26.50
2017-12-09T20:54:31.795Z,19.50
2017-12-09T20:57:40.797Z,32.10
2017-12-09T21:00:49.862Z,30.00
2017-12-09T21:03:57.718Z,17.40
2017-12-09T21:07:05.412Z,23.93
2017-12-09T21:10:13.241Z,22.47
2017-12-09T21:13:23.100Z,26.63
2017-12-09T21:16:31.725Z,28.80
2017-12-09T21:19:41.125Z,21.53
2017-12-09T21:22:48.580Z,25.57
2017-12-09T21:25:56.453Z,18.37
2017-12-09T21:29:04.557Z,23.17
2017-12-09T21:32:13.470Z,22.33
2017-12-09T21:35:20.327Z,22.47
2017-12-09T21:38:30.174Z,17.60
2017-12-09T21:41:38.419Z,21.83
2017-12-09T21:44:47.329Z,23.90
2017-12-09T21:47:55.500Z,19.80
2017-12-09T21:51:05.495Z,20.90
2017-12-09T21:54:19.472Z,15.87
2017-12-09T21:57:28.520Z,17.63
2017-12-09T22:00:40.984Z,18.53
2017-12-09T22:03:48.904Z,14.13
2017-12-09T22:06:57.753Z,15.10
2017-12-09T22:10:06.698Z,15.90
2017-12-09T22:13:14.795Z,11.97
2017-12-09T22:16:22.933Z,16.10
2017-12-09T22:19:30.591Z,14.27
2017-12-09T22:22:39.866Z,19.17
2017-12-09T22:25:47.874Z,19.90
2017-12-09T22:28:55.637Z,15.30
2017-12-09T22:32:03.549Z,14.20
2017-12-09T22:35:12.508Z,18.00
2017-12-09T22:38:19.493Z,13.23
2017-12-09T22:41:28.939Z,13.27
2017-12-09T22:44:35.803Z,17.80
2017-12-09T22:47:45.666Z,15.83
2017-12-09T22:50:54.006Z,16.70
2017-12-09T22:54:02.668Z,18.87
2017-12-09T22:57:10.566Z,20.03
2017-12-09T23:00:19.560Z,17.33
2017-12-09T23:03:29.194Z,13.00
2017-12-09T23:06:37.960Z,14.17
2017-12-09T23:09:44.821Z,15.30
2017-12-09T23:12:54.334Z,12.57
2017-12-09T23:16:05.024Z,15.57
2017-12-09T23:19:13.883Z,12.60
2017-12-09T23:22:21.766Z,15.63
2017-12-09T23:25:31.806Z,23.20
2017-12-09T23:28:39.918Z,19.17
2017-12-09T23:31:50.381Z,13.10
2017-12-09T23:34:57.229Z,14.57
2017-12-09T23:38:05.179Z,14.50
2017-12-09T23:41:14.270Z,10.77
2017-12-09T23:44:23.227Z,14.10
2017-12-09T23:47:32.957Z,11.47
2017-12-09T23:50:41.294Z,16.13
2017-12-09T23:53:50.318Z,23.10
2017-12-09T23:56:59.264Z,9.53
